sensor_id;sensor_type;location;lat;lon;timestamp;temperature;humidity
52669;DHT22;59898;52.786;6.892;2023-05-07T00:00:34;14.40;99.90
52669;DHT22;59898;52.786;6.892;2023-05-07T00:03:55;14.30;99.90
52669;DHT22;59898;52.786;6.892;2023-05-07T00:07:15;14.20;99.90
52669;DHT22;59898;52.786;6.892;2023-05-07T00:10:36;14.10;99.90
52669;DHT22;59898;52.786;6.892;2023-05-07T00:13:56;14.10;99.90
52669;DHT22;59898;52.786;6.892;2023-05-07T00:17:17;14.00;99.90
52669;DHT22;59898;52.786;6.892;2023-05-07T00:20:38;14.10;99.90
52669;DHT22;59898;52.786;6.892;2023-05-07T00:23:58;14.00;99.90
52669;DHT22;59898;52.786;6.892;2023-05-07T00:27:19;14.00;99.90
52669;DHT22;59898;52.786;6.892;2023-05-07T00:30:39;14.00;99.90
52669;DHT22;59898;52.786;6.892;2023-05-07T00:34:00;13.90;99.90
52669;DHT22;59898;52.786;6.892;2023-05-07T00:37:20;13.90;99.90
52669;DHT22;59898;52.786;6.892;2023-05-07T00:40:41;13.90;99.90
52669;DHT22;59898;52.786;6.892;2023-05-07T00:44:01;13.80;99.90
52669;DHT22;59898;52.786;6.892;2023-05-07T00:47:22;13.70;99.90
52669;DHT22;59898;52.786;6.892;2023-05-07T00:50:43;13.60;99.90
52669;DHT22;59898;52.786;6.892;2023-05-07T00:54:04;13.50;99.90
52669;DHT22;59898;52.786;6.892;2023-05-07T00:57:25;13.40;99.90
52669;DHT22;59898;52.786;6.892;2023-05-07T01:00:46;13.30;99.90
52669;DHT22;59898;52.786;6.892;2023-05-07T01:04:06;13.20;99.90
52669;DHT22;59898;52.786;6.892;2023-05-07T01:07:27;13.10;99.90
52669;DHT22;59898;52.786;6.892;2023-05-07T01:10:48;13.00;99.90
52669;DHT22;59898;52.786;6.892;2023-05-07T01:14:09;12.90;99.90
52669;DHT22;59898;52.786;6.892;2023-05-07T01:17:34;12.90;99.90
52669;DHT22;59898;52.786;6.892;2023-05-07T01:20:57;12.80;99.90
52669;DHT22;59898;52.786;6.892;2023-05-07T01:24:18;12.80;99.90
52669;DHT22;59898;52.786;6.892;2023-05-07T01:27:39;12.70;99.90
52669;DHT22;59898;52.786;6.892;2023-05-07T01:31:03;12.70;99.90
52669;DHT22;59898;52.786;6.892;2023-05-07T01:34:28;12.60;99.90
52669;DHT22;59898;52.786;6.892;2023-05-07T01:37:50;12.50;99.90
52669;DHT22;59898;52.786;6.892;2023-05-07T01:41:12;12.50;99.90
52669;DHT22;59898;52.786;6.892;2023-05-07T01:44:33;12.40;99.90
52669;DHT22;59898;52.786;6.892;2023-05-07T01:47:55;12.40;99.90
52669;DHT22;59898;52.786;6.892;2023-05-07T01:51:15;12.40;99.90
52669;DHT22;59898;52.786;6.892;2023-05-07T01:54:36;12.40;99.90
52669;DHT22;59898;52.786;6.892;2023-05-07T01:57:57;12.40;99.90
52669;DHT22;59898;52.786;6.892;2023-05-07T02:01:17;12.30;99.90
52669;DHT22;59898;52.786;6.892;2023-05-07T02:04:38;12.30;99.90
52669;DHT22;59898;52.786;6.892;2023-05-07T02:07:59;12.30;99.90
52669;DHT22;59898;52.786;6.892;2023-05-07T02:11:19;12.30;99.90
52669;DHT22;59898;52.786;6.892;2023-05-07T02:14:40;12.20;99.90
52669;DHT22;59898;52.786;6.892;2023-05-07T02:18:04;12.30;99.90
52669;DHT22;59898;52.786;6.892;2023-05-07T02:21:26;12.20;99.90
52669;DHT22;59898;52.786;6.892;2023-05-07T02:24:47;12.20;99.90
52669;DHT22;59898;52.786;6.892;2023-05-07T02:28:07;12.20;99.90
52669;DHT22;59898;52.786;6.892;2023-05-07T02:31:28;12.10;99.90
52669;DHT22;59898;52.786;6.892;2023-05-07T02:34:50;12.10;99.90
52669;DHT22;59898;52.786;6.892;2023-05-07T02:38:11;12.00;99.90
52669;DHT22;59898;52.786;6.892;2023-05-07T02:41:31;12.00;99.90
52669;DHT22;59898;52.786;6.892;2023-05-07T02:44:52;11.90;99.90
52669;DHT22;59898;52.786;6.892;2023-05-07T02:48:13;11.90;99.90
52669;DHT22;59898;52.786;6.892;2023-05-07T02:51:33;11.90;99.90
52669;DHT22;59898;52.786;6.892;2023-05-07T02:54:54;11.90;99.90
52669;DHT22;59898;52.786;6.892;2023-05-07T02:58:14;11.90;99.90
52669;DHT22;59898;52.786;6.892;2023-05-07T03:01:35;11.80;99.90
52669;DHT22;59898;52.786;6.892;2023-05-07T03:04:55;11.90;99.90
52669;DHT22;59898;52.786;6.892;2023-05-07T03:08:17;11.80;99.90
52669;DHT22;59898;52.786;6.892;2023-05-07T03:11:37;11.90;99.90
52669;DHT22;59898;52.786;6.892;2023-05-07T03:14:58;11.80;99.90
52669;DHT22;59898;52.786;6.892;2023-05-07T03:18:18;11.80;99.90
52669;DHT22;59898;52.786;6.892;2023-05-07T03:21:39;11.80;99.90
52669;DHT22;59898;52.786;6.892;2023-05-07T03:25:00;11.80;99.90
52669;DHT22;59898;52.786;6.892;2023-05-07T03:28:20;11.70;99.90
52669;DHT22;59898;52.786;6.892;2023-05-07T03:31:41;11.80;99.90
52669;DHT22;59898;52.786;6.892;2023-05-07T03:35:02;11.80;99.90
52669;DHT22;59898;52.786;6.892;2023-05-07T03:38:22;11.80;99.90
52669;DHT22;59898;52.786;6.892;2023-05-07T03:41:43;11.70;99.90
52669;DHT22;59898;52.786;6.892;2023-05-07T03:45:04;11.70;99.90
52669;DHT22;59898;52.786;6.892;2023-05-07T03:48:25;11.70;99.90
52669;DHT22;59898;52.786;6.892;2023-05-07T03:51:46;11.70;99.90
52669;DHT22;59898;52.786;6.892;2023-05-07T03:55:07;11.70;99.90
52669;DHT22;59898;52.786;6.892;2023-05-07T03:58:27;11.70;99.90
52669;DHT22;59898;52.786;6.892;2023-05-07T04:01:48;11.70;99.90
52669;DHT22;59898;52.786;6.892;2023-05-07T04:05:09;11.70;99.90
52669;DHT22;59898;52.786;6.892;2023-05-07T04:08:29;11.60;99.90
52669;DHT22;59898;52.786;6.892;2023-05-07T04:11:50;11.60;99.90
52669;DHT22;59898;52.786;6.892;2023-05-07T04:15:11;11.60;99.90
52669;DHT22;59898;52.786;6.892;2023-05-07T04:18:32;11.60;99.90
52669;DHT22;59898;52.786;6.892;2023-05-07T04:21:52;11.60;99.90
52669;DHT22;59898;52.786;6.892;2023-05-07T04:25:13;11.60;99.90
52669;DHT22;59898;52.786;6.892;2023-05-07T04:28:34;11.60;99.90
52669;DHT22;59898;52.786;6.892;2023-05-07T04:31:55;11.50;99.90
52669;DHT22;59898;52.786;6.892;2023-05-07T04:35:16;11.60;99.90
52669;DHT22;59898;52.786;6.892;2023-05-07T04:38:37;11.60;99.90
52669;DHT22;59898;52.786;6.892;2023-05-07T04:41:58;11.50;99.90
52669;DHT22;59898;52.786;6.892;2023-05-07T04:45:20;11.60;99.90
52669;DHT22;59898;52.786;6.892;2023-05-07T04:48:41;11.60;99.90
52669;DHT22;59898;52.786;6.892;2023-05-07T04:52:01;11.60;99.90
52669;DHT22;59898;52.786;6.892;2023-05-07T04:55:23;11.60;99.90
52669;DHT22;59898;52.786;6.892;2023-05-07T04:58:44;11.50;99.90
52669;DHT22;59898;52.786;6.892;2023-05-07T05:02:04;11.50;99.90
52669;DHT22;59898;52.786;6.892;2023-05-07T05:05:25;11.50;99.90
52669;DHT22;59898;52.786;6.892;2023-05-07T05:08:46;11.60;99.90
52669;DHT22;59898;52.786;6.892;2023-05-07T05:12:06;11.50;99.90
52669;DHT22;59898;52.786;6.892;2023-05-07T05:15:27;11.60;99.90
52669;DHT22;59898;52.786;6.892;2023-05-07T05:18:48;11.60;99.90
52669;DHT22;59898;52.786;6.892;2023-05-07T05:22:08;11.60;99.90
52669;DHT22;59898;52.786;6.892;2023-05-07T05:25:29;11.60;99.90
52669;DHT22;59898;52.786;6.892;2023-05-07T05:28:49;11.60;99.90
52669;DHT22;59898;52.786;6.892;2023-05-07T05:32:10;11.70;99.90
52669;DHT22;59898;52.786;6.892;2023-05-07T05:35:30;11.70;99.90
52669;DHT22;59898;52.786;6.892;2023-05-07T05:38:52;11.70;99.90
52669;DHT22;59898;52.786;6.892;2023-05-07T05:42:12;11.70;99.90
52669;DHT22;59898;52.786;6.892;2023-05-07T05:45:33;11.80;99.90
52669;DHT22;59898;52.786;6.892;2023-05-07T05:48:53;11.80;99.90
52669;DHT22;59898;52.786;6.892;2023-05-07T05:52:14;11.90;99.90
52669;DHT22;59898;52.786;6.892;2023-05-07T05:55:35;11.90;99.90
52669;DHT22;59898;52.786;6.892;2023-05-07T05:58:55;11.90;99.90
52669;DHT22;59898;52.786;6.892;2023-05-07T06:02:16;11.90;99.90
52669;DHT22;59898;52.786;6.892;2023-05-07T06:05:36;11.90;99.90
52669;DHT22;59898;52.786;6.892;2023-05-07T06:08:57;12.00;99.90
52669;DHT22;59898;52.786;6.892;2023-05-07T06:12:18;11.90;99.90
52669;DHT22;59898;52.786;6.892;2023-05-07T06:15:38;12.00;99.90
52669;DHT22;59898;52.786;6.892;2023-05-07T06:18:59;12.00;99.90
52669;DHT22;59898;52.786;6.892;2023-05-07T06:22:19;12.00;99.90
52669;DHT22;59898;52.786;6.892;2023-05-07T06:25:40;12.00;99.90
52669;DHT22;59898;52.786;6.892;2023-05-07T06:29:00;12.00;99.90
52669;DHT22;59898;52.786;6.892;2023-05-07T06:32:21;12.00;99.90
52669;DHT22;59898;52.786;6.892;2023-05-07T06:35:41;12.00;99.90
52669;DHT22;59898;52.786;6.892;2023-05-07T06:39:02;12.00;99.90
52669;DHT22;59898;52.786;6.892;2023-05-07T06:42:23;12.00;99.90
52669;DHT22;59898;52.786;6.892;2023-05-07T06:45:43;12.00;99.90
52669;DHT22;59898;52.786;6.892;2023-05-07T06:49:04;12.00;99.90
52669;DHT22;59898;52.786;6.892;2023-05-07T06:52:25;12.00;99.90
52669;DHT22;59898;52.786;6.892;2023-05-07T06:55:46;12.00;99.90
52669;DHT22;59898;52.786;6.892;2023-05-07T06:59:07;12.10;99.90
52669;DHT22;59898;52.786;6.892;2023-05-07T07:02:27;12.10;99.90
52669;DHT22;59898;52.786;6.892;2023-05-07T07:05:51;12.20;99.90
52669;DHT22;59898;52.786;6.892;2023-05-07T07:09:12;12.20;99.90
52669;DHT22;59898;52.786;6.892;2023-05-07T07:12:33;12.20;99.90
52669;DHT22;59898;52.786;6.892;2023-05-07T07:15:53;12.20;99.90
52669;DHT22;59898;52.786;6.892;2023-05-07T07:19:14;12.20;99.90
52669;DHT22;59898;52.786;6.892;2023-05-07T07:22:35;12.10;99.90
52669;DHT22;59898;52.786;6.892;2023-05-07T07:25:56;12.20;99.90
52669;DHT22;59898;52.786;6.892;2023-05-07T07:29:16;12.20;99.90
52669;DHT22;59898;52.786;6.892;2023-05-07T07:32:38;12.30;99.90
52669;DHT22;59898;52.786;6.892;2023-05-07T07:35:59;12.30;99.90
52669;DHT22;59898;52.786;6.892;2023-05-07T07:39:20;12.40;99.90
52669;DHT22;59898;52.786;6.892;2023-05-07T07:42:40;12.50;99.90
52669;DHT22;59898;52.786;6.892;2023-05-07T07:46:01;12.70;99.90
52669;DHT22;59898;52.786;6.892;2023-05-07T07:49:22;12.80;99.90
52669;DHT22;59898;52.786;6.892;2023-05-07T07:52:43;12.90;99.90
52669;DHT22;59898;52.786;6.892;2023-05-07T07:56:04;13.00;99.90
52669;DHT22;59898;52.786;6.892;2023-05-07T07:59:24;13.00;99.90
52669;DHT22;59898;52.786;6.892;2023-05-07T08:02:45;12.90;99.90
52669;DHT22;59898;52.786;6.892;2023-05-07T08:06:06;13.00;99.90
52669;DHT22;59898;52.786;6.892;2023-05-07T08:09:27;13.00;99.90
52669;DHT22;59898;52.786;6.892;2023-05-07T08:12:48;13.00;99.90
52669;DHT22;59898;52.786;6.892;2023-05-07T08:16:09;13.00;99.90
52669;DHT22;59898;52.786;6.892;2023-05-07T08:19:30;13.10;99.90
52669;DHT22;59898;52.786;6.892;2023-05-07T08:22:51;13.10;99.90
52669;DHT22;59898;52.786;6.892;2023-05-07T08:26:12;13.20;99.90
52669;DHT22;59898;52.786;6.892;2023-05-07T08:29:32;13.20;99.90
52669;DHT22;59898;52.786;6.892;2023-05-07T08:32:53;13.20;99.90
52669;DHT22;59898;52.786;6.892;2023-05-07T08:36:13;13.30;99.90
52669;DHT22;59898;52.786;6.892;2023-05-07T08:39:34;13.40;99.90
52669;DHT22;59898;52.786;6.892;2023-05-07T08:42:56;13.50;99.90
52669;DHT22;59898;52.786;6.892;2023-05-07T08:46:19;13.70;99.90
52669;DHT22;59898;52.786;6.892;2023-05-07T08:49:40;13.80;99.90
52669;DHT22;59898;52.786;6.892;2023-05-07T08:53:03;13.90;99.90
52669;DHT22;59898;52.786;6.892;2023-05-07T08:56:23;14.00;99.90
52669;DHT22;59898;52.786;6.892;2023-05-07T08:59:45;14.20;99.90
52669;DHT22;59898;52.786;6.892;2023-05-07T09:03:06;14.30;99.90
52669;DHT22;59898;52.786;6.892;2023-05-07T09:06:26;14.60;99.90
52669;DHT22;59898;52.786;6.892;2023-05-07T09:09:47;14.70;99.90
52669;DHT22;59898;52.786;6.892;2023-05-07T09:13:07;14.90;99.90
52669;DHT22;59898;52.786;6.892;2023-05-07T09:16:30;15.00;99.90
52669;DHT22;59898;52.786;6.892;2023-05-07T09:19:50;15.10;99.90
52669;DHT22;59898;52.786;6.892;2023-05-07T09:23:11;15.30;99.90
52669;DHT22;59898;52.786;6.892;2023-05-07T09:26:32;15.50;99.90
52669;DHT22;59898;52.786;6.892;2023-05-07T09:29:54;15.60;99.90
52669;DHT22;59898;52.786;6.892;2023-05-07T09:33:14;15.70;99.90
52669;DHT22;59898;52.786;6.892;2023-05-07T09:36:35;15.80;99.90
52669;DHT22;59898;52.786;6.892;2023-05-07T09:39:56;15.90;99.90
52669;DHT22;59898;52.786;6.892;2023-05-07T09:43:16;16.00;99.90
52669;DHT22;59898;52.786;6.892;2023-05-07T09:46:38;16.20;99.90
52669;DHT22;59898;52.786;6.892;2023-05-07T09:49:59;16.30;99.90
52669;DHT22;59898;52.786;6.892;2023-05-07T09:53:25;16.50;99.90
52669;DHT22;59898;52.786;6.892;2023-05-07T09:56:48;16.60;99.90
52669;DHT22;59898;52.786;6.892;2023-05-07T10:00:10;16.80;99.90
52669;DHT22;59898;52.786;6.892;2023-05-07T10:03:31;17.00;99.90
52669;DHT22;59898;52.786;6.892;2023-05-07T10:06:53;17.10;99.90
52669;DHT22;59898;52.786;6.892;2023-05-07T10:10:16;17.30;99.90
52669;DHT22;59898;52.786;6.892;2023-05-07T10:13:37;17.40;99.90
52669;DHT22;59898;52.786;6.892;2023-05-07T10:16:59;17.60;99.90
52669;DHT22;59898;52.786;6.892;2023-05-07T10:20:20;17.70;99.90
52669;DHT22;59898;52.786;6.892;2023-05-07T10:23:41;17.90;99.90
52669;DHT22;59898;52.786;6.892;2023-05-07T10:27:08;18.00;99.90
52669;DHT22;59898;52.786;6.892;2023-05-07T10:30:44;18.20;99.90
52669;DHT22;59898;52.786;6.892;2023-05-07T10:34:11;18.30;99.90
52669;DHT22;59898;52.786;6.892;2023-05-07T10:37:33;18.30;99.90
52669;DHT22;59898;52.786;6.892;2023-05-07T10:40:54;18.40;99.90
52669;DHT22;59898;52.786;6.892;2023-05-07T10:44:31;18.60;99.90
52669;DHT22;59898;52.786;6.892;2023-05-07T10:48:17;18.70;99.90
52669;DHT22;59898;52.786;6.892;2023-05-07T10:51:38;18.80;99.90
52669;DHT22;59898;52.786;6.892;2023-05-07T10:58:38;19.10;99.90
52669;DHT22;59898;52.786;6.892;2023-05-07T11:02:03;19.20;99.90
52669;DHT22;59898;52.786;6.892;2023-05-07T11:05:24;19.20;99.90
52669;DHT22;59898;52.786;6.892;2023-05-07T11:08:57;19.30;99.90
52669;DHT22;59898;52.786;6.892;2023-05-07T11:15:57;19.40;99.90
52669;DHT22;59898;52.786;6.892;2023-05-07T11:19:49;19.30;99.90
52669;DHT22;59898;52.786;6.892;2023-05-07T11:26:52;19.40;99.90
52669;DHT22;59898;52.786;6.892;2023-05-07T11:30:19;19.40;99.90
52669;DHT22;59898;52.786;6.892;2023-05-07T11:33:39;19.60;99.90
52669;DHT22;59898;52.786;6.892;2023-05-07T11:37:01;19.50;99.90
52669;DHT22;59898;52.786;6.892;2023-05-07T11:40:22;19.50;99.90
52669;DHT22;59898;52.786;6.892;2023-05-07T11:43:56;19.70;99.90
52669;DHT22;59898;52.786;6.892;2023-05-07T11:47:18;19.70;99.90
52669;DHT22;59898;52.786;6.892;2023-05-07T11:50:51;19.90;99.90
52669;DHT22;59898;52.786;6.892;2023-05-07T11:54:16;19.90;99.90
52669;DHT22;59898;52.786;6.892;2023-05-07T11:57:37;20.10;99.90
52669;DHT22;59898;52.786;6.892;2023-05-07T12:00:57;20.10;99.90
52669;DHT22;59898;52.786;6.892;2023-05-07T12:04:21;20.30;99.90
52669;DHT22;59898;52.786;6.892;2023-05-07T12:07:41;20.30;99.90
52669;DHT22;59898;52.786;6.892;2023-05-07T12:11:02;20.30;99.90
52669;DHT22;59898;52.786;6.892;2023-05-07T12:14:27;20.30;99.90
52669;DHT22;59898;52.786;6.892;2023-05-07T12:17:48;20.20;99.90
52669;DHT22;59898;52.786;6.892;2023-05-07T12:21:09;20.10;99.90
52669;DHT22;59898;52.786;6.892;2023-05-07T12:24:44;19.90;99.90
52669;DHT22;59898;52.786;6.892;2023-05-07T12:28:07;19.70;99.90
52669;DHT22;59898;52.786;6.892;2023-05-07T12:31:27;19.60;99.90
52669;DHT22;59898;52.786;6.892;2023-05-07T12:34:52;19.50;99.90
52669;DHT22;59898;52.786;6.892;2023-05-07T12:38:14;19.50;99.90
52669;DHT22;59898;52.786;6.892;2023-05-07T12:45:17;19.80;99.90
52669;DHT22;59898;52.786;6.892;2023-05-07T12:48:38;19.90;99.90
52669;DHT22;59898;52.786;6.892;2023-05-07T12:52:03;20.00;99.90
52669;DHT22;59898;52.786;6.892;2023-05-07T12:55:24;20.10;99.90
52669;DHT22;59898;52.786;6.892;2023-05-07T12:58:44;20.10;99.90
52669;DHT22;59898;52.786;6.892;2023-05-07T13:02:05;20.10;99.90
52669;DHT22;59898;52.786;6.892;2023-05-07T13:05:26;20.00;99.90
52669;DHT22;59898;52.786;6.892;2023-05-07T13:08:47;19.80;99.90
52669;DHT22;59898;52.786;6.892;2023-05-07T13:12:07;19.70;99.90
52669;DHT22;59898;52.786;6.892;2023-05-07T13:15:28;19.70;99.90
52669;DHT22;59898;52.786;6.892;2023-05-07T13:18:48;19.50;99.90
52669;DHT22;59898;52.786;6.892;2023-05-07T13:22:09;19.40;99.90
52669;DHT22;59898;52.786;6.892;2023-05-07T13:25:30;19.30;99.90
52669;DHT22;59898;52.786;6.892;2023-05-07T13:28:51;19.30;99.90
52669;DHT22;59898;52.786;6.892;2023-05-07T13:32:12;19.30;99.90
52669;DHT22;59898;52.786;6.892;2023-05-07T13:35:33;19.20;99.90
52669;DHT22;59898;52.786;6.892;2023-05-07T13:38:53;19.30;99.90
52669;DHT22;59898;52.786;6.892;2023-05-07T13:42:14;19.20;99.90
52669;DHT22;59898;52.786;6.892;2023-05-07T13:45:34;19.00;99.90
52669;DHT22;59898;52.786;6.892;2023-05-07T13:48:55;19.00;99.90
52669;DHT22;59898;52.786;6.892;2023-05-07T13:52:16;19.10;99.90
52669;DHT22;59898;52.786;6.892;2023-05-07T13:55:37;19.00;99.90
52669;DHT22;59898;52.786;6.892;2023-05-07T13:58:58;19.10;99.90
52669;DHT22;59898;52.786;6.892;2023-05-07T14:02:19;19.10;99.90
52669;DHT22;59898;52.786;6.892;2023-05-07T14:05:39;19.20;99.90
52669;DHT22;59898;52.786;6.892;2023-05-07T14:09:00;19.20;99.90
52669;DHT22;59898;52.786;6.892;2023-05-07T14:12:21;19.20;99.90
52669;DHT22;59898;52.786;6.892;2023-05-07T14:15:42;19.00;99.90
52669;DHT22;59898;52.786;6.892;2023-05-07T14:19:06;19.00;99.90
52669;DHT22;59898;52.786;6.892;2023-05-07T14:22:27;19.00;99.90
52669;DHT22;59898;52.786;6.892;2023-05-07T14:25:47;18.90;99.90
52669;DHT22;59898;52.786;6.892;2023-05-07T14:29:08;19.00;99.90
52669;DHT22;59898;52.786;6.892;2023-05-07T14:32:28;19.00;99.90
52669;DHT22;59898;52.786;6.892;2023-05-07T14:35:49;19.00;99.90
52669;DHT22;59898;52.786;6.892;2023-05-07T14:39:10;18.90;99.90
52669;DHT22;59898;52.786;6.892;2023-05-07T14:42:31;18.80;99.90
52669;DHT22;59898;52.786;6.892;2023-05-07T14:45:52;18.70;99.90
52669;DHT22;59898;52.786;6.892;2023-05-07T14:49:14;18.60;99.90
52669;DHT22;59898;52.786;6.892;2023-05-07T14:52:37;18.50;99.90
52669;DHT22;59898;52.786;6.892;2023-05-07T14:55:57;18.40;99.90
52669;DHT22;59898;52.786;6.892;2023-05-07T14:59:19;18.30;99.90
52669;DHT22;59898;52.786;6.892;2023-05-07T15:02:41;18.30;99.90
52669;DHT22;59898;52.786;6.892;2023-05-07T15:06:02;18.30;99.90
52669;DHT22;59898;52.786;6.892;2023-05-07T15:09:23;18.30;99.90
52669;DHT22;59898;52.786;6.892;2023-05-07T15:12:43;18.30;99.90
52669;DHT22;59898;52.786;6.892;2023-05-07T15:16:04;18.30;99.90
52669;DHT22;59898;52.786;6.892;2023-05-07T15:19:24;18.30;99.90
52669;DHT22;59898;52.786;6.892;2023-05-07T15:22:49;18.30;99.90
52669;DHT22;59898;52.786;6.892;2023-05-07T15:26:10;18.40;99.90
52669;DHT22;59898;52.786;6.892;2023-05-07T15:29:30;18.40;99.90
52669;DHT22;59898;52.786;6.892;2023-05-07T15:32:51;18.40;99.90
52669;DHT22;59898;52.786;6.892;2023-05-07T15:36:12;18.30;99.90
52669;DHT22;59898;52.786;6.892;2023-05-07T15:39:32;18.30;99.90
52669;DHT22;59898;52.786;6.892;2023-05-07T15:42:54;18.40;99.90
52669;DHT22;59898;52.786;6.892;2023-05-07T15:46:19;18.40;99.90
52669;DHT22;59898;52.786;6.892;2023-05-07T15:49:41;18.40;99.90
52669;DHT22;59898;52.786;6.892;2023-05-07T15:53:01;18.40;99.90
52669;DHT22;59898;52.786;6.892;2023-05-07T15:56:23;18.50;99.90
52669;DHT22;59898;52.786;6.892;2023-05-07T15:59:44;18.50;99.90
52669;DHT22;59898;52.786;6.892;2023-05-07T16:03:05;18.40;99.90
52669;DHT22;59898;52.786;6.892;2023-05-07T16:06:25;18.40;99.90
52669;DHT22;59898;52.786;6.892;2023-05-07T16:09:47;18.40;99.90
52669;DHT22;59898;52.786;6.892;2023-05-07T16:13:07;18.40;99.90
52669;DHT22;59898;52.786;6.892;2023-05-07T16:16:28;18.40;99.90
52669;DHT22;59898;52.786;6.892;2023-05-07T16:19:52;18.40;99.90
52669;DHT22;59898;52.786;6.892;2023-05-07T16:23:12;18.30;99.90
52669;DHT22;59898;52.786;6.892;2023-05-07T16:26:33;18.30;99.90
52669;DHT22;59898;52.786;6.892;2023-05-07T16:29:53;18.20;99.90
52669;DHT22;59898;52.786;6.892;2023-05-07T16:33:14;18.20;99.90
52669;DHT22;59898;52.786;6.892;2023-05-07T16:36:34;18.10;99.90
52669;DHT22;59898;52.786;6.892;2023-05-07T16:39:55;18.10;99.90
52669;DHT22;59898;52.786;6.892;2023-05-07T16:43:16;18.10;99.90
52669;DHT22;59898;52.786;6.892;2023-05-07T16:46:36;18.00;99.90
52669;DHT22;59898;52.786;6.892;2023-05-07T16:49:57;18.00;99.90
52669;DHT22;59898;52.786;6.892;2023-05-07T16:53:19;18.10;99.90
52669;DHT22;59898;52.786;6.892;2023-05-07T16:56:40;18.10;99.90
52669;DHT22;59898;52.786;6.892;2023-05-07T17:00:01;18.10;99.90
52669;DHT22;59898;52.786;6.892;2023-05-07T17:03:26;18.00;99.90
52669;DHT22;59898;52.786;6.892;2023-05-07T17:06:48;18.00;99.90
52669;DHT22;59898;52.786;6.892;2023-05-07T17:10:09;17.90;99.90
52669;DHT22;59898;52.786;6.892;2023-05-07T17:13:29;17.90;99.90
52669;DHT22;59898;52.786;6.892;2023-05-07T17:16:50;17.80;99.90
52669;DHT22;59898;52.786;6.892;2023-05-07T17:20:11;17.70;99.90
52669;DHT22;59898;52.786;6.892;2023-05-07T17:23:32;17.60;99.90
52669;DHT22;59898;52.786;6.892;2023-05-07T17:26:52;17.60;99.90
52669;DHT22;59898;52.786;6.892;2023-05-07T17:30:13;17.50;99.90
52669;DHT22;59898;52.786;6.892;2023-05-07T17:33:35;17.50;99.90
52669;DHT22;59898;52.786;6.892;2023-05-07T17:36:55;17.50;99.90
52669;DHT22;59898;52.786;6.892;2023-05-07T17:40:20;17.40;99.90
52669;DHT22;59898;52.786;6.892;2023-05-07T17:43:41;17.50;99.90
52669;DHT22;59898;52.786;6.892;2023-05-07T17:47:02;17.40;99.90
52669;DHT22;59898;52.786;6.892;2023-05-07T17:50:23;17.40;99.90
52669;DHT22;59898;52.786;6.892;2023-05-07T17:53:43;17.40;99.90
52669;DHT22;59898;52.786;6.892;2023-05-07T17:57:04;17.30;99.90
52669;DHT22;59898;52.786;6.892;2023-05-07T18:00:24;17.30;99.90
52669;DHT22;59898;52.786;6.892;2023-05-07T18:03:45;17.30;99.90
52669;DHT22;59898;52.786;6.892;2023-05-07T18:07:05;17.30;99.90
52669;DHT22;59898;52.786;6.892;2023-05-07T18:10:26;17.20;99.90
52669;DHT22;59898;52.786;6.892;2023-05-07T18:13:47;17.20;99.90
52669;DHT22;59898;52.786;6.892;2023-05-07T18:17:08;17.20;99.90
52669;DHT22;59898;52.786;6.892;2023-05-07T18:20:28;17.20;99.90
52669;DHT22;59898;52.786;6.892;2023-05-07T18:23:49;17.10;99.90
52669;DHT22;59898;52.786;6.892;2023-05-07T18:27:10;17.10;99.90
52669;DHT22;59898;52.786;6.892;2023-05-07T18:30:32;17.00;99.90
52669;DHT22;59898;52.786;6.892;2023-05-07T18:33:53;16.90;99.90
52669;DHT22;59898;52.786;6.892;2023-05-07T18:37:15;16.90;99.90
52669;DHT22;59898;52.786;6.892;2023-05-07T18:40:35;16.80;99.90
52669;DHT22;59898;52.786;6.892;2023-05-07T18:43:56;16.70;99.90
52669;DHT22;59898;52.786;6.892;2023-05-07T18:47:16;16.70;99.90
52669;DHT22;59898;52.786;6.892;2023-05-07T18:50:43;16.60;99.90
52669;DHT22;59898;52.786;6.892;2023-05-07T18:54:04;16.50;99.90
52669;DHT22;59898;52.786;6.892;2023-05-07T18:57:24;16.40;99.90
52669;DHT22;59898;52.786;6.892;2023-05-07T19:00:47;16.40;99.90
52669;DHT22;59898;52.786;6.892;2023-05-07T19:04:08;16.30;99.90
52669;DHT22;59898;52.786;6.892;2023-05-07T19:07:29;16.30;99.90
52669;DHT22;59898;52.786;6.892;2023-05-07T19:10:50;16.30;99.90
52669;DHT22;59898;52.786;6.892;2023-05-07T19:14:10;16.20;99.90
52669;DHT22;59898;52.786;6.892;2023-05-07T19:17:31;16.20;99.90
52669;DHT22;59898;52.786;6.892;2023-05-07T19:20:52;16.10;99.90
52669;DHT22;59898;52.786;6.892;2023-05-07T19:24:12;16.10;99.90
52669;DHT22;59898;52.786;6.892;2023-05-07T19:27:33;16.00;99.90
52669;DHT22;59898;52.786;6.892;2023-05-07T19:30:53;16.00;99.90
52669;DHT22;59898;52.786;6.892;2023-05-07T19:34:14;15.90;99.90
52669;DHT22;59898;52.786;6.892;2023-05-07T19:37:35;15.90;99.90
52669;DHT22;59898;52.786;6.892;2023-05-07T19:40:55;15.90;99.90
52669;DHT22;59898;52.786;6.892;2023-05-07T19:44:17;15.80;99.90
52669;DHT22;59898;52.786;6.892;2023-05-07T19:47:37;15.80;99.90
52669;DHT22;59898;52.786;6.892;2023-05-07T19:50:58;15.70;99.90
52669;DHT22;59898;52.786;6.892;2023-05-07T19:54:19;15.70;99.90
52669;DHT22;59898;52.786;6.892;2023-05-07T19:57:40;15.60;99.90
52669;DHT22;59898;52.786;6.892;2023-05-07T20:01:01;15.50;99.90
52669;DHT22;59898;52.786;6.892;2023-05-07T20:04:22;15.50;99.90
52669;DHT22;59898;52.786;6.892;2023-05-07T20:07:48;15.40;99.90
52669;DHT22;59898;52.786;6.892;2023-05-07T20:11:08;15.40;99.90
52669;DHT22;59898;52.786;6.892;2023-05-07T20:14:30;15.30;99.90
52669;DHT22;59898;52.786;6.892;2023-05-07T20:17:51;15.20;99.90
52669;DHT22;59898;52.786;6.892;2023-05-07T20:21:12;15.20;99.90
52669;DHT22;59898;52.786;6.892;2023-05-07T20:24:37;15.10;99.90
52669;DHT22;59898;52.786;6.892;2023-05-07T20:27:58;15.00;99.90
52669;DHT22;59898;52.786;6.892;2023-05-07T20:31:18;15.00;99.90
52669;DHT22;59898;52.786;6.892;2023-05-07T20:34:39;14.90;99.90
52669;DHT22;59898;52.786;6.892;2023-05-07T20:38:00;14.90;99.90
52669;DHT22;59898;52.786;6.892;2023-05-07T20:41:20;14.90;99.90
52669;DHT22;59898;52.786;6.892;2023-05-07T20:44:43;14.90;99.90
52669;DHT22;59898;52.786;6.892;2023-05-07T20:48:04;14.80;99.90
52669;DHT22;59898;52.786;6.892;2023-05-07T20:51:25;14.80;99.90
52669;DHT22;59898;52.786;6.892;2023-05-07T20:54:46;14.80;99.90
52669;DHT22;59898;52.786;6.892;2023-05-07T20:58:09;14.70;99.90
52669;DHT22;59898;52.786;6.892;2023-05-07T21:01:29;14.70;99.90
52669;DHT22;59898;52.786;6.892;2023-05-07T21:04:50;14.70;99.90
52669;DHT22;59898;52.786;6.892;2023-05-07T21:08:11;14.70;99.90
52669;DHT22;59898;52.786;6.892;2023-05-07T21:11:32;14.60;99.90
52669;DHT22;59898;52.786;6.892;2023-05-07T21:14:52;14.60;99.90
52669;DHT22;59898;52.786;6.892;2023-05-07T21:18:13;14.50;99.90
52669;DHT22;59898;52.786;6.892;2023-05-07T21:21:34;14.40;99.90
52669;DHT22;59898;52.786;6.892;2023-05-07T21:24:54;14.40;99.90